Terminal Aerodrome Forecast
Issued by NWS North Platte, NE

Home | Current Version | Previous Version | Text Only | Print | Product List | Glossary Off
Versions: 1 2 3 4 5 6 7 8 9 10 11 12

000
FTUS43 KLBF 131739
TAFVTN
TAF
KVTN 131739Z 1318/1418 19012G18KT P6SM BKN220
     FM132200 19008KT P6SM SCT180
     FM140700 25005KT P6SM BKN130
     FM141200 27006KT P6SM OVC070=

USA.gov is the U.S. government's official web portal to all federal, state and local government web resources and services.